Time;durP1;ratioP1;P1;durP2;ratioP2;P2;SDS_P1;SDS_P2;PMS_P1;PMS_P2;Temp;Humidity;BMP_temperature;BMP_pressure;BME280_temperature;BME280_humidity;BME280_pressure;Samples;Min_cycle;Max_cycle;Signal;HPM_P1;HPM_P2
2021/03/19 00:01:53;;;;;;;10.05;6.30;;;4.50;99.90;;;;;;5060133;28;20297;-87
2021/03/19 00:04:21;;;;;;;11.68;6.05;;;4.60;99.90;;;;;;5061613;28;20202;-86
2021/03/19 00:06:47;;;;;;;8.57;6.40;;;4.60;99.90;;;;;;5046809;28;20271;-86
2021/03/19 00:09:13;;;;;;;8.90;6.28;;;4.70;99.90;;;;;;5046630;28;20305;-86
2021/03/19 00:11:40;;;;;;;9.77;6.13;;;4.70;99.90;;;;;;5062229;28;20701;-87
2021/03/19 00:14:09;;;;;;;9.63;6.60;;;4.70;99.90;;;;;;5075800;28;20303;-87
2021/03/19 00:16:36;;;;;;;7.93;5.55;;;4.70;99.90;;;;;;5081519;28;20627;-86
2021/03/19 00:19:03;;;;;;;10.93;5.82;;;4.60;99.90;;;;;;5066867;28;20225;-87
2021/03/19 00:21:31;;;;;;;8.85;5.60;;;4.90;99.90;;;;;;5062180;28;20191;-86
2021/03/19 00:23:57;;;;;;;11.13;6.28;;;4.70;99.90;;;;;;5062143;28;20328;-87
2021/03/19 00:26:26;;;;;;;6.65;5.10;;;4.60;99.90;;;;;;5064240;28;20217;-87
2021/03/19 00:28:52;;;;;;;7.88;5.60;;;5.00;99.90;;;;;;5086731;28;20321;-86
2021/03/19 00:31:20;;;;;;;10.57;5.75;;;5.10;99.90;;;;;;5067245;28;20241;-86
2021/03/19 00:33:46;;;;;;;7.50;5.32;;;4.80;99.90;;;;;;5063265;28;20260;-87
2021/03/19 00:36:13;;;;;;;10.52;6.13;;;4.80;99.90;;;;;;5060497;28;20267;-86
2021/03/19 00:38:40;;;;;;;9.05;6.18;;;4.80;99.90;;;;;;5059308;28;20665;-87
2021/03/19 00:41:06;;;;;;;9.82;6.18;;;4.60;99.90;;;;;;5064381;28;20247;-87
2021/03/19 00:43:33;;;;;;;8.20;5.63;;;4.60;99.90;;;;;;5075317;28;20252;-86
2021/03/19 00:45:59;;;;;;;11.60;6.47;;;4.80;99.90;;;;;;5074839;28;20288;-86
2021/03/19 00:48:26;;;;;;;9.27;6.00;;;4.70;99.90;;;;;;5080395;28;20226;-86
2021/03/19 00:50:53;;;;;;;10.80;6.72;;;4.60;99.90;;;;;;5080208;28;20683;-86
2021/03/19 00:53:20;;;;;;;10.88;6.85;;;4.40;99.90;;;;;;5068127;28;20675;-86
2021/03/19 00:55:53;;;;;;;8.27;5.38;;;4.50;99.90;;;;;;5060793;28;20289;-85
2021/03/19 00:58:20;;;;;;;9.10;5.90;;;4.50;99.90;;;;;;5063451;28;20222;-86
2021/03/19 01:00:46;;;;;;;11.13;6.45;;;4.50;99.90;;;;;;5063513;28;20186;-85
2021/03/19 01:03:13;;;;;;;10.20;7.03;;;4.50;99.90;;;;;;5075918;28;20241;-85
2021/03/19 01:05:41;;;;;;;10.90;6.88;;;4.30;99.90;;;;;;5064600;28;20210;-87
2021/03/19 01:08:09;;;;;;;10.93;6.82;;;4.10;99.90;;;;;;5051719;28;20231;-86
2021/03/19 01:10:39;;;;;;;10.52;7.47;;;4.10;99.90;;;;;;5060401;22;20640;-88
2021/03/19 01:13:07;;;;;;;11.02;6.85;;;4.30;99.90;;;;;;5023415;28;20216;-88
2021/03/19 01:15:34;;;;;;;15.13;6.93;;;4.50;99.90;;;;;;5035025;28;20222;-87
2021/03/19 01:18:00;;;;;;;8.70;6.35;;;4.30;99.90;;;;;;5036117;28;20721;-87
2021/03/19 01:20:28;;;;;;;11.40;8.20;;;4.30;99.90;;;;;;5039343;28;20230;-86
2021/03/19 01:22:55;;;;;;;9.30;6.53;;;4.30;99.90;;;;;;5038435;28;20215;-89
2021/03/19 01:25:24;;;;;;;8.32;5.72;;;4.20;99.90;;;;;;5019573;28;20270;-86
2021/03/19 01:27:50;;;;;;;11.23;6.68;;;4.20;99.90;;;;;;5029683;28;20224;-86
2021/03/19 01:30:20;;;;;;;10.75;6.57;;;4.20;99.90;;;;;;5038904;28;20246;-86
2021/03/19 01:32:48;;;;;;;10.88;6.63;;;4.30;99.90;;;;;;5035306;28;20211;-89
2021/03/19 01:35:15;;;;;;;13.50;7.07;;;4.40;99.90;;;;;;5036340;28;20239;-86
2021/03/19 01:37:43;;;;;;;10.45;6.25;;;4.60;99.90;;;;;;5036066;28;20262;-87
2021/03/19 01:40:12;;;;;;;10.73;7.30;;;4.60;99.90;;;;;;5035205;28;20796;-88
2021/03/19 01:42:39;;;;;;;13.50;7.05;;;4.60;99.90;;;;;;5040858;28;20312;-89
2021/03/19 01:45:38;;;;;;;12.23;8.10;;;4.60;99.90;;;;;;5049394;28;20216;-84
2021/03/19 01:48:42;;;;;;;10.80;7.93;;;4.50;99.90;;;;;;5040095;28;20246;-89
2021/03/19 01:51:46;;;;;;;10.95;7.40;;;4.30;99.90;;;;;;5038894;28;20279;-89
2021/03/19 01:54:49;;;;;;;12.32;6.95;;;4.20;99.90;;;;;;5048074;28;20226;-85
2021/03/19 01:57:52;;;;;;;10.77;8.18;;;4.40;99.90;;;;;;5049462;28;20206;-84
2021/03/19 02:00:56;;;;;;;9.15;6.90;;;4.20;99.90;;;;;;5025983;28;20281;-85
2021/03/19 02:03:59;;;;;;;10.00;6.65;;;4.10;99.90;;;;;;5042332;28;20206;-86
2021/03/19 02:07:03;;;;;;;11.80;7.97;;;4.10;99.90;;;;;;5015438;28;20215;-85
2021/03/19 02:10:06;;;;;;;11.32;7.57;;;4.00;99.90;;;;;;5035788;28;20254;-87
2021/03/19 02:13:10;;;;;;;12.70;8.30;;;4.00;99.90;;;;;;5038752;28;20206;-87
2021/03/19 02:16:13;;;;;;;10.23;7.50;;;4.30;99.90;;;;;;5036240;28;20211;-85
2021/03/19 02:19:17;;;;;;;13.70;8.30;;;4.10;99.90;;;;;;5038343;28;20274;-86
2021/03/19 02:22:21;;;;;;;14.30;8.77;;;4.20;99.90;;;;;;5047116;28;20272;-88
2021/03/19 02:25:25;;;;;;;10.35;8.10;;;4.00;99.90;;;;;;5048403;28;20273;-87
2021/03/19 02:28:28;;;;;;;10.75;8.23;;;4.00;99.90;;;;;;5043252;28;20257;-88
2021/03/19 02:31:10;;;;;;;14.07;7.45;;;3.90;99.90;;;;;;5042932;28;20318;-84
2021/03/19 02:33:39;;;;;;;11.35;8.63;;;4.00;99.90;;;;;;5051637;28;20274;-88
2021/03/19 02:36:06;;;;;;;12.73;8.82;;;4.00;99.90;;;;;;5055726;28;20218;-86
2021/03/19 02:38:32;;;;;;;13.25;8.55;;;3.90;99.90;;;;;;5046943;28;20227;-85
2021/03/19 02:40:59;;;;;;;11.57;8.70;;;3.90;99.90;;;;;;5049683;28;20226;-87
2021/03/19 02:43:26;;;;;;;11.88;8.73;;;4.00;99.90;;;;;;5046020;28;20681;-84
2021/03/19 02:45:52;;;;;;;12.95;9.23;;;3.90;99.90;;;;;;5044118;28;20681;-84
2021/03/19 02:48:19;;;;;;;14.55;9.48;;;3.90;99.90;;;;;;5048377;28;20310;-86
2021/03/19 02:50:47;;;;;;;12.20;8.90;;;3.90;99.90;;;;;;5051632;28;20235;-86
2021/03/19 02:53:14;;;;;;;13.40;8.77;;;4.10;99.90;;;;;;5046403;28;20214;-88
2021/03/19 02:55:41;;;;;;;11.45;8.13;;;3.90;99.90;;;;;;5042747;28;20279;-89
2021/03/19 02:58:08;;;;;;;11.35;7.70;;;4.00;99.90;;;;;;5040832;28;20314;-89
2021/03/19 03:00:34;;;;;;;9.93;8.23;;;4.00;99.90;;;;;;5048998;28;20235;-87
2021/03/19 03:03:01;;;;;;;12.30;8.82;;;3.90;99.90;;;;;;5052159;28;20235;-88
2021/03/19 03:05:30;;;;;;;13.05;8.43;;;4.20;99.90;;;;;;5052969;28;20207;-85
2021/03/19 03:08:04;;;;;;;11.57;8.57;;;4.00;99.90;;;;;;5049485;28;20918;-87
2021/03/19 03:10:34;;;;;;;11.50;8.43;;;4.10;99.90;;;;;;5046166;28;20234;-86
2021/03/19 03:13:00;;;;;;;12.18;8.40;;;4.10;99.90;;;;;;5041730;28;20697;-86
2021/03/19 03:15:27;;;;;;;13.95;8.80;;;4.30;99.90;;;;;;5037230;28;20210;-84
2021/03/19 03:17:53;;;;;;;11.90;9.13;;;4.00;99.90;;;;;;5037011;28;20213;-84
2021/03/19 03:20:23;;;;;;;12.35;9.27;;;4.00;99.90;;;;;;5037521;28;20219;-88
2021/03/19 03:22:50;;;;;;;12.70;9.50;;;4.20;99.90;;;;;;5037178;28;20226;-89
2021/03/19 03:25:19;;;;;;;13.18;8.63;;;4.30;99.90;;;;;;5039055;28;20212;-87
2021/03/19 03:27:46;;;;;;;12.90;9.48;;;4.00;99.90;;;;;;5040365;28;20227;-87
2021/03/19 03:30:17;;;;;;;12.90;9.25;;;4.00;99.90;;;;;;5038123;28;20215;-89
2021/03/19 03:32:43;;;;;;;13.15;8.85;;;4.10;99.90;;;;;;5037239;28;20207;-86
2021/03/19 03:35:11;;;;;;;12.13;8.40;;;4.00;99.90;;;;;;5047476;28;20281;-88
2021/03/19 03:37:41;;;;;;;13.50;9.35;;;4.10;99.90;;;;;;5054029;28;20291;-86
2021/03/19 03:40:10;;;;;;;14.50;8.95;;;4.00;99.90;;;;;;5046408;28;20233;-86
2021/03/19 03:42:43;;;;;;;12.13;8.95;;;4.00;99.90;;;;;;5038542;28;20217;-86
2021/03/19 03:49:26;;;;;;;15.30;8.65;;;4.10;99.90;;;;;;5037995;28;20235;-87
2021/03/19 03:51:53;;;;;;;15.95;10.55;;;4.30;99.90;;;;;;5021541;28;20215;-86
2021/03/19 03:57:32;;;;;;;12.23;8.95;;;4.10;99.90;;;;;;5033745;28;20235;-87
2021/03/19 04:00:00;;;;;;;17.77;10.13;;;4.20;99.90;;;;;;5024530;28;20310;-87
2021/03/19 04:02:29;;;;;;;12.45;9.18;;;4.00;99.90;;;;;;5034860;28;20219;-86
2021/03/19 04:04:56;;;;;;;12.35;8.90;;;4.00;99.90;;;;;;5036610;28;20230;-85
2021/03/19 04:07:23;;;;;;;15.70;10.20;;;4.00;99.90;;;;;;5031582;28;20552;-87
2021/03/19 04:09:50;;;;;;;14.00;9.63;;;4.20;99.90;;;;;;5040077;28;20281;-87
2021/03/19 04:12:17;;;;;;;13.90;9.90;;;4.00;99.90;;;;;;5039034;28;20608;-86
2021/03/19 04:14:43;;;;;;;14.95;9.93;;;4.10;99.90;;;;;;5038586;28;20294;-87
2021/03/19 04:17:21;;;;;;;14.98;9.85;;;4.10;99.90;;;;;;5038008;28;20202;-89
2021/03/19 04:19:47;;;;;;;17.98;10.10;;;4.20;99.90;;;;;;5037180;28;20708;-88
2021/03/19 04:22:16;;;;;;;13.57;9.43;;;4.00;99.90;;;;;;5041811;28;20199;-88
2021/03/19 04:24:42;;;;;;;12.45;10.05;;;4.20;99.90;;;;;;5037571;28;20611;-85
2021/03/19 04:27:13;;;;;;;17.10;9.95;;;4.00;99.90;;;;;;5037050;28;20199;-86
2021/03/19 04:29:39;;;;;;;15.50;9.50;;;4.10;99.90;;;;;;5029374;28;20231;-88
2021/03/19 04:32:06;;;;;;;14.13;9.57;;;4.20;99.90;;;;;;5037505;28;20207;-88
2021/03/19 04:34:33;;;;;;;16.58;9.65;;;4.20;99.90;;;;;;5038413;28;20584;-87
2021/03/19 04:37:00;;;;;;;12.40;8.82;;;4.00;99.90;;;;;;5037684;28;20253;-87
2021/03/19 04:39:31;;;;;;;14.70;10.13;;;4.10;99.90;;;;;;5037772;28;20225;-87
2021/03/19 04:42:00;;;;;;;16.40;9.52;;;4.40;99.90;;;;;;5038842;28;20209;-86
2021/03/19 04:44:31;;;;;;;11.93;9.23;;;4.30;99.90;;;;;;5038039;28;20662;-88
2021/03/19 04:46:57;;;;;;;16.77;10.30;;;4.40;99.90;;;;;;5038065;28;20206;-87
2021/03/19 04:49:24;;;;;;;16.05;10.45;;;4.40;99.90;;;;;;5036437;28;20226;-84
2021/03/19 04:51:51;;;;;;;15.50;10.30;;;4.10;99.90;;;;;;5046666;28;20203;-85
2021/03/19 04:54:19;;;;;;;13.02;9.70;;;4.20;99.90;;;;;;5051776;28;20244;-87
2021/03/19 04:56:45;;;;;;;14.40;10.20;;;4.20;99.90;;;;;;5051932;28;20214;-88
2021/03/19 04:59:11;;;;;;;15.25;11.57;;;4.10;99.90;;;;;;5053599;28;20233;-87
2021/03/19 05:01:49;;;;;;;14.63;10.93;;;4.20;99.90;;;;;;5049054;28;20230;-88
2021/03/19 05:04:16;;;;;;;14.02;10.25;;;4.10;99.90;;;;;;5052794;28;20269;-86
2021/03/19 05:06:43;;;;;;;13.05;9.02;;;4.00;99.90;;;;;;5051630;28;20207;-88
2021/03/19 05:09:11;;;;;;;17.48;12.13;;;4.10;99.90;;;;;;5038377;28;20676;-87
2021/03/19 05:11:38;;;;;;;14.75;10.80;;;4.00;99.90;;;;;;5040705;28;20191;-88
2021/03/19 05:14:05;;;;;;;13.65;10.05;;;3.90;99.90;;;;;;5041537;28;20194;-88
2021/03/19 05:16:32;;;;;;;18.20;11.30;;;4.10;99.90;;;;;;5022176;28;20238;-87
2021/03/19 05:18:58;;;;;;;15.07;11.25;;;4.10;99.90;;;;;;5023159;28;20257;-87
2021/03/19 05:21:25;;;;;;;13.48;9.70;;;4.30;99.90;;;;;;5024336;28;20220;-87
2021/03/19 05:23:51;;;;;;;12.70;10.10;;;4.20;99.90;;;;;;5021949;28;20658;-88
2021/03/19 05:26:19;;;;;;;14.70;10.90;;;4.30;99.90;;;;;;5024838;28;20294;-86
2021/03/19 05:28:45;;;;;;;12.68;10.05;;;4.20;99.90;;;;;;5051623;28;20223;-87
2021/03/19 05:31:12;;;;;;;15.00;10.63;;;4.10;99.90;;;;;;5050073;28;20238;-87
2021/03/19 05:33:45;;;;;;;15.27;10.23;;;4.30;99.90;;;;;;5045112;28;20631;-86
2021/03/19 05:36:13;;;;;;;14.18;10.30;;;4.30;99.90;;;;;;5042657;28;20207;-84
2021/03/19 05:38:40;;;;;;;15.30;10.93;;;4.30;99.90;;;;;;5040556;28;20227;-88
2021/03/19 05:41:07;;;;;;;14.45;10.52;;;4.40;99.90;;;;;;5040644;28;20314;-86
2021/03/19 05:43:38;;;;;;;18.25;11.55;;;4.20;99.90;;;;;;5040430;28;20255;-88
2021/03/19 05:46:08;;;;;;;13.50;10.20;;;4.40;99.90;;;;;;5041245;28;20219;-86
2021/03/19 05:48:44;;;;;;;15.07;9.75;;;4.40;99.90;;;;;;5040759;28;20230;-88
2021/03/19 05:51:23;;;;;;;17.25;11.55;;;4.40;99.90;;;;;;5041764;28;20225;-88
2021/03/19 05:53:54;;;;;;;13.98;10.70;;;4.50;99.90;;;;;;5042403;28;20279;-87
2021/03/19 05:56:23;;;;;;;15.43;10.68;;;4.60;99.90;;;;;;5045498;28;20282;-88
2021/03/19 05:58:51;;;;;;;12.10;10.10;;;4.70;99.90;;;;;;5041958;28;20657;-86
2021/03/19 06:01:18;;;;;;;14.32;10.40;;;4.80;99.90;;;;;;5041413;28;20243;-87
2021/03/19 06:03:45;;;;;;;14.05;9.98;;;4.50;99.90;;;;;;5044029;28;20199;-85
2021/03/19 06:06:13;;;;;;;15.07;12.45;;;4.40;99.90;;;;;;5046298;28;20233;-86
2021/03/19 06:08:44;;;;;;;16.73;10.55;;;4.60;99.90;;;;;;5046844;28;20288;-85
2021/03/19 06:11:14;;;;;;;11.77;9.10;;;4.80;99.90;;;;;;5045996;28;20238;-86
2021/03/19 06:13:52;;;;;;;13.20;9.55;;;4.80;99.90;;;;;;5047426;28;20203;-87
2021/03/19 06:16:43;;;;;;;14.88;10.70;;;4.50;99.90;;;;;;5035923;28;20210;-87
2021/03/19 06:19:33;;;;;;;19.23;11.55;;;4.30;99.90;;;;;;5056143;28;20267;-86
2021/03/19 06:22:15;;;;;;;13.55;9.30;;;4.30;99.90;;;;;;5056571;28;20211;-85
2021/03/19 06:24:42;;;;;;;15.18;10.40;;;4.50;99.90;;;;;;5057805;28;20221;-84
2021/03/19 06:27:23;;;;;;;15.32;10.73;;;4.30;99.90;;;;;;5047087;28;20680;-85
2021/03/19 06:29:54;;;;;;;16.10;10.98;;;4.30;99.90;;;;;;5045328;28;20250;-86
2021/03/19 06:32:28;;;;;;;20.33;11.82;;;4.20;99.90;;;;;;5046185;28;20314;-88
2021/03/19 06:35:26;;;;;;;14.20;10.40;;;4.10;99.90;;;;;;5046502;28;20215;-87
2021/03/19 06:37:53;;;;;;;17.67;12.23;;;4.30;99.90;;;;;;5047036;28;20207;-87
2021/03/19 06:40:30;;;;;;;20.52;13.48;;;4.10;99.90;;;;;;5044373;28;20222;-87
2021/03/19 06:43:12;;;;;;;21.08;14.43;;;3.80;99.90;;;;;;5026794;28;20184;-86
2021/03/19 06:45:40;;;;;;;19.05;13.52;;;3.80;99.90;;;;;;5045122;28;20203;-87
2021/03/19 06:48:27;;;;;;;18.40;12.35;;;3.70;99.90;;;;;;5045632;28;20219;-85
2021/03/19 06:50:54;;;;;;;18.00;12.68;;;3.90;99.90;;;;;;5046110;28;20311;-86
2021/03/19 06:53:23;;;;;;;21.40;13.98;;;4.00;99.90;;;;;;5044858;28;20222;-84
2021/03/19 06:55:52;;;;;;;18.23;12.68;;;4.00;99.90;;;;;;5043410;28;20314;-84
2021/03/19 06:58:36;;;;;;;18.48;12.25;;;4.40;99.90;;;;;;5047673;28;20207;-83
2021/03/19 07:01:05;;;;;;;18.45;12.65;;;4.50;99.90;;;;;;5048263;28;20223;-83
2021/03/19 07:03:55;;;;;;;19.90;14.23;;;4.50;99.90;;;;;;5050313;28;20195;-82
2021/03/19 07:06:38;;;;;;;19.33;14.13;;;4.20;99.90;;;;;;5010063;28;20218;-83
2021/03/19 07:09:13;;;;;;;21.42;14.13;;;4.30;99.90;;;;;;5050221;28;20221;-83
2021/03/19 07:11:52;;;;;;;17.83;13.30;;;4.50;99.90;;;;;;5074362;22;20320;-77
2021/03/19 07:14:49;;;;;;;20.85;14.32;;;4.20;99.90;;;;;;5070732;28;20216;-77
2021/03/19 07:17:46;;;;;;;23.20;14.20;;;4.50;99.90;;;;;;5071476;28;20298;-77
2021/03/19 07:20:37;;;;;;;17.05;12.88;;;4.30;99.90;;;;;;5067715;28;20240;-77
2021/03/19 07:23:14;;;;;;;19.13;13.38;;;4.40;99.90;;;;;;5050928;28;20846;-77
2021/03/19 07:25:53;;;;;;;20.23;14.25;;;4.20;99.90;;;;;;5069906;28;20209;-77
2021/03/19 07:28:33;;;;;;;18.80;14.60;;;4.30;99.90;;;;;;5074925;28;20631;-77
2021/03/19 07:31:16;;;;;;;22.02;14.68;;;4.20;99.90;;;;;;5076242;28;20778;-77
2021/03/19 07:34:08;;;;;;;19.10;14.38;;;4.50;99.90;;;;;;5075420;28;20577;-77
2021/03/19 07:36:49;;;;;;;21.25;14.45;;;4.40;99.90;;;;;;5083434;28;20204;-77
2021/03/19 07:39:42;;;;;;;19.02;14.20;;;4.50;99.90;;;;;;5071793;28;20281;-77
2021/03/19 07:42:20;;;;;;;24.90;15.57;;;4.50;99.90;;;;;;5087422;28;20300;-77
2021/03/19 07:44:53;;;;;;;23.23;15.85;;;4.30;99.90;;;;;;5051824;28;20206;-77
2021/03/19 07:47:41;;;;;;;22.48;14.65;;;4.40;99.90;;;;;;5051533;28;20207;-77
2021/03/19 07:50:28;;;;;;;21.02;14.82;;;4.50;99.90;;;;;;5050930;28;20352;-77
2021/03/19 07:53:23;;;;;;;18.50;14.43;;;4.50;99.90;;;;;;5058291;28;20296;-77
2021/03/19 07:55:58;;;;;;;22.02;14.98;;;4.60;99.90;;;;;;5032856;28;20665;-77
2021/03/19 07:58:43;;;;;;;21.52;16.55;;;4.50;99.90;;;;;;5067967;28;20261;-77
2021/03/19 08:01:15;;;;;;;22.52;14.45;;;4.80;99.90;;;;;;5064962;28;20264;-78
2021/03/19 08:03:43;;;;;;;16.45;11.73;;;4.80;99.90;;;;;;5072643;28;20642;-77
2021/03/19 08:06:15;;;;;;;19.73;13.60;;;5.00;99.90;;;;;;5071451;28;20293;-77
2021/03/19 08:08:49;;;;;;;19.88;12.82;;;4.80;99.90;;;;;;5072485;28;20699;-77
2021/03/19 08:11:22;;;;;;;20.00;13.77;;;4.80;99.90;;;;;;5081823;28;20229;-77
2021/03/19 08:14:04;;;;;;;22.40;14.00;;;5.10;99.90;;;;;;5071271;28;20281;-79
2021/03/19 08:16:37;;;;;;;15.73;11.77;;;5.00;99.90;;;;;;5071140;28;20248;-77
2021/03/19 08:19:15;;;;;;;15.85;11.98;;;5.20;99.90;;;;;;5071194;28;20244;-77
2021/03/19 08:21:48;;;;;;;17.52;10.73;;;4.80;99.90;;;;;;5063815;28;20256;-78
2021/03/19 08:24:33;;;;;;;12.55;6.53;;;4.70;99.90;;;;;;5071296;28;20227;-77
2021/03/19 08:27:10;;;;;;;13.82;8.50;;;4.60;99.90;;;;;;5068483;28;20273;-78
2021/03/19 08:29:46;;;;;;;13.48;9.07;;;4.40;99.90;;;;;;5071766;28;20225;-77
2021/03/19 08:32:25;;;;;;;11.52;5.78;;;4.50;99.90;;;;;;5082189;28;20225;-76
2021/03/19 08:35:01;;;;;;;16.23;9.98;;;4.30;99.90;;;;;;5072516;28;20284;-76
2021/03/19 08:37:38;;;;;;;15.60;9.43;;;4.20;99.90;;;;;;5072572;28;20202;-77
2021/03/19 08:40:10;;;;;;;14.75;7.50;;;4.20;99.90;;;;;;5073112;28;20205;-77
2021/03/19 08:42:39;;;;;;;17.08;10.13;;;4.10;99.90;;;;;;5074687;28;20690;-77
2021/03/19 08:45:08;;;;;;;15.07;8.65;;;4.10;99.90;;;;;;5071954;28;20209;-79
2021/03/19 08:47:40;;;;;;;12.38;6.70;;;4.10;99.90;;;;;;5072843;28;20708;-78
2021/03/19 08:50:25;;;;;;;21.20;12.38;;;4.00;99.90;;;;;;5073244;28;20481;-78
2021/03/19 08:53:07;;;;;;;19.10;10.50;;;4.00;99.90;;;;;;5081040;28;20198;-78
2021/03/19 08:55:35;;;;;;;15.23;9.60;;;4.10;99.90;;;;;;5071683;28;20680;-78
2021/03/19 08:58:49;;;;;;;15.40;9.60;;;4.10;99.90;;;;;;5071473;28;20205;-77
2021/03/19 09:01:52;;;;;;;17.10;10.55;;;4.10;99.90;;;;;;5054063;28;20225;-77
2021/03/19 09:04:39;;;;;;;18.13;10.77;;;4.20;99.90;;;;;;5069305;28;20500;-77
2021/03/19 09:07:22;;;;;;;20.88;11.80;;;4.10;99.90;;;;;;5072623;28;20301;-77
2021/03/19 09:09:52;;;;;;;18.60;12.75;;;4.10;99.90;;;;;;5085329;28;20221;-78
2021/03/19 09:12:21;;;;;;;16.52;8.80;;;4.30;99.90;;;;;;5094909;28;20213;-79
2021/03/19 09:15:23;;;;;;;19.10;12.80;;;4.30;99.90;;;;;;5092736;28;20294;-79
2021/03/19 09:18:02;;;;;;;20.83;12.00;;;4.30;99.90;;;;;;5079936;28;20236;-79
2021/03/19 09:21:01;;;;;;;14.57;9.38;;;4.40;99.90;;;;;;5075201;28;20324;-79
2021/03/19 09:23:31;;;;;;;20.55;13.27;;;4.60;99.90;;;;;;5078029;28;20209;-80
2021/03/19 09:26:29;;;;;;;18.50;10.55;;;4.50;99.90;;;;;;5080781;28;20201;-78
2021/03/19 09:29:21;;;;;;;17.55;10.75;;;4.70;99.90;;;;;;5073976;28;20235;-78
2021/03/19 09:31:51;;;;;;;19.17;11.43;;;4.60;99.90;;;;;;5065865;28;20229;-79
2021/03/19 09:34:23;;;;;;;16.38;11.77;;;4.70;99.90;;;;;;5077153;28;20297;-84
2021/03/19 09:37:12;;;;;;;14.68;10.45;;;4.60;99.90;;;;;;5082315;28;20289;-79
2021/03/19 09:40:12;;;;;;;16.67;10.95;;;4.80;99.90;;;;;;5082750;28;20200;-78
2021/03/19 09:42:50;;;;;;;17.63;9.93;;;4.80;99.90;;;;;;5078217;28;20198;-79
2021/03/19 09:45:36;;;;;;;15.82;10.77;;;5.00;99.90;;;;;;5072983;28;20296;-79
2021/03/19 09:48:29;;;;;;;17.27;12.48;;;5.10;99.90;;;;;;5076810;28;20209;-79
2021/03/19 09:51:16;;;;;;;16.08;10.70;;;5.10;99.90;;;;;;5081719;28;20238;-80
2021/03/19 09:53:44;;;;;;;14.85;10.45;;;4.90;99.90;;;;;;5079062;28;20240;-78
2021/03/19 09:56:28;;;;;;;14.15;9.23;;;5.10;99.90;;;;;;5077180;28;20244;-77
2021/03/19 09:58:57;;;;;;;16.65;10.30;;;5.20;99.90;;;;;;5076863;28;20226;-79
2021/03/19 10:01:41;;;;;;;12.48;9.50;;;5.20;99.90;;;;;;5086122;28;20233;-79
2021/03/19 10:04:11;;;;;;;13.65;9.48;;;5.20;99.90;;;;;;5075554;28;20796;-79
2021/03/19 10:06:45;;;;;;;13.13;7.50;;;5.40;99.90;;;;;;5073046;28;20292;-79
2021/03/19 10:09:16;;;;;;;15.30;9.73;;;5.60;99.90;;;;;;5073074;28;20214;-79
2021/03/19 10:12:12;;;;;;;14.55;10.68;;;5.60;99.90;;;;;;5093330;28;20243;-75
2021/03/19 10:14:41;;;;;;;15.98;9.68;;;5.60;99.90;;;;;;5074915;28;20220;-76
2021/03/19 10:17:26;;;;;;;14.80;9.90;;;5.50;99.90;;;;;;5077403;28;20201;-74
2021/03/19 10:19:58;;;;;;;14.15;9.27;;;5.70;99.90;;;;;;5083193;28;20200;-75
2021/03/19 10:22:44;;;;;;;13.57;9.07;;;5.70;99.90;;;;;;5077673;28;20198;-79
2021/03/19 10:25:25;;;;;;;12.88;7.95;;;5.50;99.90;;;;;;5090074;28;20198;-80
2021/03/19 10:27:54;;;;;;;14.25;8.82;;;5.30;99.90;;;;;;5075967;28;20194;-78
2021/03/19 10:30:26;;;;;;;14.65;9.13;;;5.50;99.90;;;;;;5072873;28;20684;-78
2021/03/19 10:32:54;;;;;;;11.77;8.10;;;5.20;99.90;;;;;;5069918;28;20206;-79
2021/03/19 10:35:30;;;;;;;16.52;10.05;;;5.20;99.90;;;;;;5069882;28;20273;-76
2021/03/19 10:38:06;;;;;;;13.32;7.75;;;5.60;99.90;;;;;;5081572;28;20194;-76
2021/03/19 10:40:36;;;;;;;12.85;8.75;;;5.40;99.90;;;;;;5086092;28;20715;-77
2021/03/19 10:43:11;;;;;;;11.00;6.95;;;5.30;99.90;;;;;;5071002;28;20213;-77
2021/03/19 10:45:43;;;;;;;13.70;8.27;;;5.30;99.90;;;;;;5070529;28;20213;-77
2021/03/19 10:48:16;;;;;;;14.30;9.85;;;5.30;99.90;;;;;;5077530;28;20240;-77
2021/03/19 10:51:01;;;;;;;14.25;8.75;;;5.20;99.90;;;;;;5090918;28;20228;-77
2021/03/19 10:53:39;;;;;;;12.88;8.55;;;5.30;99.90;;;;;;5097242;28;20208;-78
2021/03/19 10:56:06;;;;;;;14.93;9.95;;;5.60;99.90;;;;;;5104580;28;20231;-77
2021/03/19 10:58:40;;;;;;;15.63;8.93;;;5.70;99.90;;;;;;5097873;28;20197;-77
2021/03/19 11:01:28;;;;;;;13.75;9.95;;;5.90;99.90;;;;;;5102128;28;20224;-76
2021/03/19 11:03:55;;;;;;;13.70;9.60;;;5.70;99.90;;;;;;5104816;28;20212;-77
2021/03/19 11:06:36;;;;;;;12.10;8.02;;;5.80;99.90;;;;;;5103552;28;20205;-77
2021/03/19 11:09:11;;;;;;;10.15;7.20;;;5.70;99.90;;;;;;5079320;28;20300;-77
2021/03/19 11:11:39;;;;;;;11.88;7.60;;;5.80;99.90;;;;;;5076240;28;20248;-77
2021/03/19 11:14:09;;;;;;;8.65;5.53;;;5.70;99.90;;;;;;5077128;28;20394;-77
2021/03/19 11:16:38;;;;;;;8.88;5.65;;;5.60;99.90;;;;;;5074840;28;20206;-77
2021/03/19 11:19:08;;;;;;;7.43;4.35;;;5.50;99.90;;;;;;5096040;28;20259;-77
2021/03/19 11:21:36;;;;;;;7.60;4.97;;;5.60;99.90;;;;;;5099188;28;20251;-77
2021/03/19 11:24:25;;;;;;;7.20;5.30;;;5.70;99.90;;;;;;5099588;28;20349;-77
2021/03/19 11:27:12;;;;;;;7.30;5.03;;;5.50;99.90;;;;;;5058457;28;20269;-79
2021/03/19 11:29:41;;;;;;;6.57;4.45;;;5.60;99.90;;;;;;5081501;28;20240;-79
2021/03/19 11:32:29;;;;;;;8.98;3.83;;;5.50;99.90;;;;;;5091183;28;20224;-79
2021/03/19 11:34:57;;;;;;;3.55;2.50;;;5.50;99.90;;;;;;5090662;28;20220;-80
2021/03/19 11:37:40;;;;;;;6.15;4.15;;;5.30;99.90;;;;;;5091549;28;20212;-79
2021/03/19 11:40:13;;;;;;;7.90;4.88;;;5.20;99.90;;;;;;5110193;28;20573;-79
2021/03/19 11:42:42;;;;;;;7.03;3.40;;;5.60;99.90;;;;;;5089360;28;20549;-79
2021/03/19 11:45:12;;;;;;;7.00;3.30;;;5.40;99.90;;;;;;5088246;28;20270;-81
2021/03/19 11:47:40;;;;;;;7.85;4.90;;;5.20;99.90;;;;;;5088379;28;20198;-79
2021/03/19 11:50:27;;;;;;;6.00;2.60;;;5.10;99.90;;;;;;5102621;28;20228;-79
2021/03/19 11:53:00;;;;;;;7.38;3.67;;;5.20;99.90;;;;;;5100788;28;20228;-80
2021/03/19 11:55:30;;;;;;;4.75;2.88;;;5.40;99.90;;;;;;5099914;28;20185;-79
2021/03/19 11:57:57;;;;;;;6.43;3.60;;;5.40;99.90;;;;;;5087128;28;20234;-79
2021/03/19 12:00:27;;;;;;;5.20;3.17;;;5.20;99.90;;;;;;5080730;28;20218;-80
2021/03/19 12:02:56;;;;;;;10.05;5.82;;;5.10;99.90;;;;;;5081078;28;20741;-80
2021/03/19 12:05:23;;;;;;;9.25;5.72;;;5.20;99.90;;;;;;5077324;28;20229;-80
2021/03/19 12:07:50;;;;;;;7.18;4.50;;;5.20;99.90;;;;;;5086634;28;20216;-79
2021/03/19 12:10:19;;;;;;;7.28;3.55;;;5.20;99.90;;;;;;5095129;28;20305;-78
2021/03/19 12:12:46;;;;;;;10.07;6.57;;;5.30;99.90;;;;;;5094542;28;20740;-79
2021/03/19 12:18:40;;;;;;;10.70;5.70;;;5.30;99.90;;;;;;5078306;28;20213;-79
2021/03/19 12:21:09;;;;;;;8.60;3.22;;;5.20;99.90;;;;;;5078588;28;20633;-80
2021/03/19 12:23:36;;;;;;;6.82;3.88;;;5.00;99.90;;;;;;5077361;28;20206;-79
2021/03/19 12:26:03;;;;;;;11.65;6.97;;;5.00;99.90;;;;;;5073902;28;20202;-79
2021/03/19 12:28:30;;;;;;;13.75;8.57;;;4.90;99.90;;;;;;5076664;28;20261;-78
2021/03/19 12:30:58;;;;;;;13.55;8.10;;;5.10;99.90;;;;;;5073865;28;20226;-79
2021/03/19 12:33:29;;;;;;;11.63;7.72;;;5.00;99.90;;;;;;5075806;28;20669;-80
2021/03/19 12:35:56;;;;;;;13.00;8.98;;;5.00;99.90;;;;;;5075265;28;20205;-76
2021/03/19 12:38:29;;;;;;;10.70;6.93;;;5.40;99.90;;;;;;5083036;28;20699;-78
2021/03/19 12:40:59;;;;;;;12.10;7.80;;;5.50;99.90;;;;;;5093846;28;20240;-80
2021/03/19 12:43:27;;;;;;;11.60;7.82;;;5.40;99.90;;;;;;5095784;28;20232;-79
2021/03/19 12:45:54;;;;;;;13.70;7.43;;;5.50;99.90;;;;;;5090318;28;20409;-79
2021/03/19 12:48:20;;;;;;;7.00;3.67;;;5.40;99.90;;;;;;5074691;28;20236;-81
2021/03/19 12:50:47;;;;;;;9.73;6.40;;;5.20;99.90;;;;;;5073313;28;20226;-78
2021/03/19 12:53:17;;;;;;;16.25;9.35;;;5.00;99.90;;;;;;5073704;28;20225;-78
2021/03/19 12:55:44;;;;;;;16.15;9.30;;;4.90;99.90;;;;;;5075116;28;20288;-78
2021/03/19 12:58:11;;;;;;;17.45;8.30;;;4.80;99.90;;;;;;5084111;28;20320;-79
2021/03/19 13:00:41;;;;;;;12.77;6.57;;;4.80;99.90;;;;;;5074224;28;20335;-78
2021/03/19 13:03:08;;;;;;;19.00;11.63;;;4.90;99.90;;;;;;5072831;28;20225;-80
2021/03/19 13:05:36;;;;;;;19.15;10.13;;;4.60;99.90;;;;;;5074065;28;20221;-78
2021/03/19 13:08:03;;;;;;;12.77;6.00;;;4.80;99.90;;;;;;5092833;28;20291;-79
2021/03/19 13:10:33;;;;;;;21.23;12.20;;;4.80;99.90;;;;;;5092780;28;20229;-79
2021/03/19 13:13:01;;;;;;;16.85;8.32;;;4.80;99.90;;;;;;5112986;22;20225;-88
2021/03/19 13:15:31;;;;;;;20.70;10.30;;;4.80;99.90;;;;;;5092910;28;20206;-88
2021/03/19 13:17:59;;;;;;;11.38;6.30;;;4.80;99.90;;;;;;5083017;28;20229;-86
2021/03/19 13:20:27;;;;;;;9.18;5.65;;;4.70;99.90;;;;;;5090898;28;20241;-82
2021/03/19 13:22:54;;;;;;;17.80;7.50;;;4.70;99.90;;;;;;5091576;28;20256;-86
2021/03/19 13:25:23;;;;;;;19.70;10.38;;;4.80;99.90;;;;;;5080971;28;20209;-88
2021/03/19 13:27:50;;;;;;;16.10;10.35;;;4.70;99.90;;;;;;5080296;28;20202;-83
2021/03/19 13:30:18;;;;;;;18.25;10.43;;;5.00;99.90;;;;;;5080423;28;20307;-86
2021/03/19 13:32:47;;;;;;;17.08;10.07;;;4.70;99.90;;;;;;5080013;28;20369;-88